Time;durP1;ratioP1;P1;durP2;ratioP2;P2;SDS_P1;SDS_P2;PMS_P1;PMS_P2;Temp;Humidity;BMP_temperature;BMP_pressure;BME280_temperature;BME280_humidity;BME280_pressure;Samples;Min_cycle;Max_cycle;Signal;HPM_P1;HPM_P2
2020/12/07 00:02:09;;;;;;;;;;;;;;;18.60;61.20;101361.28;5016490;28;1649;-39
2020/12/07 00:04:34;;;;;;;;;;;;;;;18.61;61.75;101365.66;5016077;28;1637;-39
2020/12/07 00:07:00;;;;;;;;;;;;;;;18.57;61.16;101366.03;5015289;28;1622;-39
2020/12/07 00:09:25;;;;;;;;;;;;;;;18.61;61.12;101360.31;5016653;28;1638;-39
2020/12/07 00:11:50;;;;;;;;;;;;;;;18.58;60.62;101355.22;5016695;28;798;-39
2020/12/07 00:14:15;;;;;;;;;;;;;;;18.61;61.12;101367.50;5016397;28;1467;-39
2020/12/07 00:16:46;;;;;;;;;;;;;;;18.58;61.02;101362.38;5015954;28;1621;-39
2020/12/07 00:19:12;;;;;;;;;;;;;;;18.60;61.07;101379.16;5016154;28;1955;-39
2020/12/07 00:21:37;;;;;;;;;;;;;;;18.61;60.78;101379.06;5015631;28;1440;-39
2020/12/07 00:24:02;;;;;;;;;;;;;;;18.58;61.00;101367.72;5014787;28;1381;-39
2020/12/07 00:26:28;;;;;;;;;;;;;;;18.54;60.60;101372.44;5016139;28;1572;-39
2020/12/07 00:28:58;;;;;;;;;;;;;;;18.54;60.66;101366.25;5015933;28;1629;-39
2020/12/07 00:31:23;;;;;;;;;;;;;;;18.54;60.33;101363.56;5016095;28;1595;-39
2020/12/07 00:33:48;;;;;;;;;;;;;;;18.53;60.48;101372.59;5016291;28;1510;-38
2020/12/07 00:36:14;;;;;;;;;;;;;;;18.53;60.77;101368.09;5017323;28;1615;-39
2020/12/07 00:38:39;;;;;;;;;;;;;;;18.51;60.26;101367.34;5014593;28;1442;-39
2020/12/07 00:41:04;;;;;;;;;;;;;;;18.52;59.96;101363.69;5016241;28;1914;-39
2020/12/07 00:43:29;;;;;;;;;;;;;;;18.52;60.58;101358.31;5015634;28;1605;-39
2020/12/07 00:45:56;;;;;;;;;;;;;;;18.52;60.39;101363.69;5015105;28;1690;-38
2020/12/07 00:48:21;;;;;;;;;;;;;;;18.50;59.98;101360.28;5015213;28;1549;-39
2020/12/07 00:50:47;;;;;;;;;;;;;;;18.46;60.61;101353.44;5015516;28;1636;-39
2020/12/07 00:53:12;;;;;;;;;;;;;;;18.45;60.32;101355.28;5014289;28;1577;-39
2020/12/07 00:55:37;;;;;;;;;;;;;;;18.48;60.52;101335.44;5014265;28;1518;-39
2020/12/07 00:58:02;;;;;;;;;;;;;;;18.50;60.32;101338.84;5017634;28;1531;-38
2020/12/07 01:00:28;;;;;;;;;;;;;;;18.47;60.73;101328.38;5014410;28;1894;-39
2020/12/07 01:02:53;;;;;;;;;;;;;;;18.44;60.07;101340.19;5012679;28;1669;-38
2020/12/07 01:05:18;;;;;;;;;;;;;;;18.48;60.35;101335.44;5014913;28;1620;-39
2020/12/07 01:07:44;;;;;;;;;;;;;;;18.42;60.22;101335.91;5014256;28;1578;-39
2020/12/07 01:10:10;;;;;;;;;;;;;;;18.43;60.02;101327.75;5014378;28;1535;-39
2020/12/07 01:12:35;;;;;;;;;;;;;;;18.44;60.09;101328.59;5015413;28;1627;-39
2020/12/07 01:15:00;;;;;;;;;;;;;;;18.41;60.29;101324.34;5015289;28;1669;-38
2020/12/07 01:17:25;;;;;;;;;;;;;;;18.39;59.83;101320.09;5014882;28;1603;-39
2020/12/07 01:19:52;;;;;;;;;;;;;;;18.38;60.13;101310.34;5014894;28;1959;-40
2020/12/07 01:22:17;;;;;;;;;;;;;;;18.42;59.43;101322.53;5014867;28;1742;-40
2020/12/07 01:24:42;;;;;;;;;;;;;;;18.45;60.08;101319.63;5015058;28;1797;-39
2020/12/07 01:27:08;;;;;;;;;;;;;;;18.44;59.73;101313.41;5014838;28;1481;-39
2020/12/07 01:29:34;;;;;;;;;;;;;;;18.40;59.86;101300.38;5014918;28;1607;-39
2020/12/07 01:31:59;;;;;;;;;;;;;;;18.41;59.72;101302.94;5014710;28;1804;-39
2020/12/07 01:34:25;;;;;;;;;;;;;;;18.42;59.71;101309.13;5014683;28;1630;-39
2020/12/07 01:36:50;;;;;;;;;;;;;;;18.43;59.23;101300.13;5014727;28;1671;-39
2020/12/07 01:39:15;;;;;;;;;;;;;;;18.42;60.09;101291.25;5014641;28;2389;-39
2020/12/07 01:41:40;;;;;;;;;;;;;;;18.42;60.11;101312.69;5014366;28;1682;-39
2020/12/07 01:44:06;;;;;;;;;;;;;;;18.37;59.85;101300.63;5015128;28;1793;-39
2020/12/07 01:46:31;;;;;;;;;;;;;;;18.39;59.71;101298.66;5014673;28;1567;-39
2020/12/07 01:48:56;;;;;;;;;;;;;;;18.37;59.79;101289.91;5014809;28;1645;-39
2020/12/07 01:51:22;;;;;;;;;;;;;;;18.37;59.60;101289.91;5014858;28;1652;-39
2020/12/07 01:53:48;;;;;;;;;;;;;;;18.38;59.84;101286.25;5014891;28;1561;-39
2020/12/07 01:56:18;;;;;;;;;;;;;;;18.32;59.32;101276.00;5014310;28;1591;-39
2020/12/07 01:58:44;;;;;;;;;;;;;;;18.36;59.73;101277.47;5014502;28;1418;-39
2020/12/07 02:01:09;;;;;;;;;;;;;;;18.35;59.74;101270.44;5014334;28;1945;-39
2020/12/07 02:03:34;;;;;;;;;;;;;;;18.32;59.67;101276.84;5014610;28;1618;-39
2020/12/07 02:05:59;;;;;;;;;;;;;;;18.35;59.74;101291.84;5014333;28;1615;-39
2020/12/07 02:08:25;;;;;;;;;;;;;;;18.28;59.08;101276.25;5014030;28;1511;-40
2020/12/07 02:10:50;;;;;;;;;;;;;;;18.28;59.25;101281.63;5013814;28;1737;-39
2020/12/07 02:13:15;;;;;;;;;;;;;;;18.31;59.67;101268.97;5014477;28;1611;-39
2020/12/07 02:15:41;;;;;;;;;;;;;;;18.26;59.26;101255.91;5014514;28;1503;-39
2020/12/07 02:18:07;;;;;;;;;;;;;;;18.29;59.50;101269.91;5014282;28;1634;-39
2020/12/07 02:20:32;;;;;;;;;;;;;;;18.28;59.83;101270.91;5014009;28;1898;-39
2020/12/07 02:22:58;;;;;;;;;;;;;;;18.28;59.41;101273.59;5013682;28;1633;-39
2020/12/07 02:25:23;;;;;;;;;;;;;;;18.28;59.60;101276.25;5014045;28;1427;-39
2020/12/07 02:27:49;;;;;;;;;;;;;;;18.26;59.53;101256.78;5013947;28;1579;-39
2020/12/07 02:30:18;;;;;;;;;;;;;;;18.27;59.42;101255.81;5014242;28;1611;-39
2020/12/07 02:32:44;;;;;;;;;;;;;;;18.29;58.92;101264.56;5013830;28;1630;-39
2020/12/07 02:35:10;;;;;;;;;;;;;;;18.25;58.83;101263.09;5014071;28;1574;-39
2020/12/07 02:37:37;;;;;;;;;;;;;;;18.31;59.57;101274.31;5013983;28;1653;-39
2020/12/07 02:40:04;;;;;;;;;;;;;;;18.33;59.18;101272.38;5013549;28;1980;-39
2020/12/07 02:42:32;;;;;;;;;;;;;;;18.28;59.38;101270.91;5013994;28;1539;-39
2020/12/07 02:44:57;;;;;;;;;;;;;;;18.29;58.85;101282.47;5013965;28;1660;-39
2020/12/07 02:47:23;;;;;;;;;;;;;;;18.28;59.31;101292.31;5013459;28;1610;-39
2020/12/07 02:49:48;;;;;;;;;;;;;;;18.29;58.90;101269.91;5013580;28;1605;-39
2020/12/07 02:52:13;;;;;;;;;;;;;;;18.26;59.25;101278.19;5013477;28;1554;-39
2020/12/07 02:54:38;;;;;;;;;;;;;;;18.22;58.70;101258.00;5013536;28;1663;-39
2020/12/07 02:57:04;;;;;;;;;;;;;;;18.26;58.21;101285.34;5013931;28;1531;-39
2020/12/07 02:59:29;;;;;;;;;;;;;;;18.23;58.81;101278.44;5013490;28;1890;-39
2020/12/07 03:01:54;;;;;;;;;;;;;;;18.22;58.76;101287.44;5013691;28;1869;-39
2020/12/07 03:04:19;;;;;;;;;;;;;;;18.26;59.69;101296.06;5013319;28;1645;-39
2020/12/07 03:06:44;;;;;;;;;;;;;;;18.19;60.68;101293.03;5013110;28;1549;-39
2020/12/07 03:09:10;;;;;;;;;;;;;;;18.01;61.78;101303.31;5013889;28;1724;-39
2020/12/07 03:11:35;;;;;;;;;;;;;;;17.91;61.53;101304.13;5013861;28;1596;-38
2020/12/07 03:14:00;;;;;;;;;;;;;;;17.78;62.12;101307.66;5013825;28;868;-39
2020/12/07 03:16:25;;;;;;;;;;;;;;;17.74;62.67;101303.50;5013783;28;877;-39
2020/12/07 03:18:51;;;;;;;;;;;;;;;17.72;62.55;101304.59;5013810;28;880;-39
2020/12/07 03:21:16;;;;;;;;;;;;;;;17.66;62.83;101295.19;5012487;28;1951;-39
2020/12/07 03:23:41;;;;;;;;;;;;;;;17.66;63.87;101297.88;5013800;28;1566;-39
2020/12/07 03:26:06;;;;;;;;;;;;;;;17.65;63.18;101299.72;5013698;28;1587;-39
2020/12/07 03:28:31;;;;;;;;;;;;;;;17.63;64.02;101306.16;5013508;28;1454;-39
2020/12/07 03:30:57;;;;;;;;;;;;;;;17.59;63.77;101312.69;5013463;28;790;-39
2020/12/07 03:33:22;;;;;;;;;;;;;;;17.58;63.43;101301.13;5013483;28;785;-39
2020/12/07 03:35:47;;;;;;;;;;;;;;;17.59;63.86;101300.16;5012859;28;1694;-39
2020/12/07 03:38:12;;;;;;;;;;;;;;;17.59;64.28;101315.38;5014657;28;1403;-39
2020/12/07 03:40:38;;;;;;;;;;;;;;;17.58;64.80;101309.13;5016019;28;1910;-39
2020/12/07 03:43:03;;;;;;;;;;;;;;;17.58;64.57;101305.63;5013670;28;813;-38
2020/12/07 03:45:28;;;;;;;;;;;;;;;17.56;64.64;101299.53;5013216;28;1612;-38
2020/12/07 03:47:53;;;;;;;;;;;;;;;17.57;64.32;101301.25;5013206;28;1623;-38
2020/12/07 03:50:19;;;;;;;;;;;;;;;17.57;65.11;101306.59;5013266;28;840;-38
2020/12/07 03:52:44;;;;;;;;;;;;;;;17.58;66.21;101309.13;5012741;28;1899;-39
2020/12/07 03:55:09;;;;;;;;;;;;;;;17.59;66.60;101302.84;5012200;28;1690;-39
2020/12/07 03:57:35;;;;;;;;;;;;;;;17.62;67.56;101302.59;5012877;28;1616;-39
2020/12/07 04:00:00;;;;;;;;;;;;;;;17.64;68.03;101300.66;5014563;28;1894;-39
2020/12/07 04:02:27;;;;;;;;;;;;;;;17.65;67.82;101293.50;5015919;28;1505;-39
2020/12/07 04:05:02;;;;;;;;;;;;;;;17.65;68.27;101298.88;5016281;28;1653;-39
2020/12/07 04:07:27;;;;;;;;;;;;;;;17.69;68.24;101301.19;5016648;28;1588;-39
2020/12/07 04:09:53;;;;;;;;;;;;;;;17.64;68.24;101300.66;5016234;28;1128;-39
2020/12/07 04:12:18;;;;;;;;;;;;;;;17.62;67.17;101304.41;5015291;28;1414;-40
2020/12/07 04:14:43;;;;;;;;;;;;;;;17.65;67.12;101322.94;5015962;28;1550;-39
2020/12/07 04:17:08;;;;;;;;;;;;;;;17.62;68.69;101312.44;5016348;28;1661;-39
2020/12/07 04:19:34;;;;;;;;;;;;;;;17.58;68.67;101301.13;5016189;28;1902;-39
2020/12/07 04:21:59;;;;;;;;;;;;;;;17.59;68.64;101299.31;5015453;28;1749;-39
2020/12/07 04:24:24;;;;;;;;;;;;;;;17.55;67.89;101296.00;5016097;28;1629;-39
2020/12/07 04:26:49;;;;;;;;;;;;;;;17.66;68.05;101297.88;5015822;28;1701;-38
2020/12/07 04:29:15;;;;;;;;;;;;;;;17.68;68.57;101310.16;5015640;28;1458;-39
2020/12/07 04:31:40;;;;;;;;;;;;;;;17.72;67.73;101316.13;5015565;28;1406;-39
2020/12/07 04:34:05;;;;;;;;;;;;;;;17.73;67.96;101317.88;5015878;28;1698;-39
2020/12/07 04:36:30;;;;;;;;;;;;;;;17.64;67.72;101318.53;5016388;28;1032;-39
2020/12/07 04:38:55;;;;;;;;;;;;;;;17.55;68.29;101320.06;5015804;28;1574;-39
2020/12/07 04:41:21;;;;;;;;;;;;;;;17.56;68.89;101311.06;5016106;28;1970;-39
2020/12/07 04:43:48;;;;;;;;;;;;;;;17.54;69.24;101296.97;5015753;28;1601;-39
2020/12/07 04:46:13;;;;;;;;;;;;;;;17.55;68.26;101311.19;5015550;28;1756;-39
2020/12/07 04:48:40;;;;;;;;;;;;;;;17.53;68.63;101302.41;5016160;28;907;-39
2020/12/07 04:51:06;;;;;;;;;;;;;;;17.56;67.90;101312.91;5016130;28;797;-38
2020/12/07 04:53:32;;;;;;;;;;;;;;;17.60;68.51;101304.53;5015691;28;935;-39
2020/12/07 04:55:58;;;;;;;;;;;;;;;17.58;68.54;101302.94;5015910;28;1736;-38
2020/12/07 04:58:24;;;;;;;;;;;;;;;17.56;68.11;101315.56;5015263;28;1755;-39
2020/12/07 05:00:50;;;;;;;;;;;;;;;17.54;68.06;101306.81;5015257;28;1898;-39
2020/12/07 05:03:15;;;;;;;;;;;;;;;17.55;68.53;101300.47;5030769;28;2050;-39
2020/12/07 05:05:40;;;;;;;;;;;;;;;17.57;67.22;101319.97;5014812;28;1615;-39
2020/12/07 05:08:05;;;;;;;;;;;;;;;17.50;68.84;101317.72;5015835;28;880;-39
2020/12/07 05:10:39;;;;;;;;;;;;;;;17.42;68.03;101322.78;5015373;28;777;-39
2020/12/07 05:13:32;;;;;;;;;;;;;;;17.45;67.88;101308.34;5014919;28;1618;-39
2020/12/07 05:15:50;;;;;;;;;;;;;;;17.45;68.49;101311.03;5014899;28;1413;-39
2020/12/07 05:18:15;;;;;;;;;;;;;;;17.44;67.02;101307.47;5015432;28;1598;-39
2020/12/07 05:20:41;;;;;;;;;;;;;;;17.45;67.60;101309.19;5015474;28;1957;-39
2020/12/07 05:23:06;;;;;;;;;;;;;;;17.41;67.85;101302.38;5015500;28;817;-39
2020/12/07 05:25:32;;;;;;;;;;;;;;;17.45;68.44;101305.69;5015227;28;1594;-39
2020/12/07 05:27:58;;;;;;;;;;;;;;;17.46;67.61;101315.38;5014916;28;1673;-39
2020/12/07 05:30:30;;;;;;;;;;;;;;;17.44;68.37;101299.44;5014725;28;1630;-39
2020/12/07 05:32:55;;;;;;;;;;;;;;;17.48;67.65;101308.09;5015294;28;1588;-38
2020/12/07 05:35:20;;;;;;;;;;;;;;;17.44;67.59;101309.31;5015014;28;1641;-39
2020/12/07 05:37:45;;;;;;;;;;;;;;;17.41;68.17;101318.41;5014936;28;889;-38
2020/12/07 05:40:12;;;;;;;;;;;;;;;17.43;68.15;101320.97;5014648;28;1985;-39
2020/12/07 05:42:37;;;;;;;;;;;;;;;17.40;68.61;101322.03;5015153;28;865;-39
2020/12/07 05:45:04;;;;;;;;;;;;;;;17.39;67.97;101325.69;5014718;28;1730;-39
2020/12/07 05:47:31;;;;;;;;;;;;;;;17.34;68.77;101319.81;5014968;28;1615;-39
2020/12/07 05:49:56;;;;;;;;;;;;;;;17.36;68.50;101319.72;5014857;28;1571;-39
2020/12/07 05:52:40;;;;;;;;;;;;;;;17.37;67.43;101334.75;5014822;28;1720;-39
2020/12/07 05:55:07;;;;;;;;;;;;;;;17.38;68.20;101325.78;5001237;28;1568;-39
2020/12/07 05:57:40;;;;;;;;;;;;;;;17.36;68.56;101315.19;5014694;28;1555;-39
2020/12/07 06:00:06;;;;;;;;;;;;;;;17.36;68.80;101309.00;5014500;28;1894;-39
2020/12/07 06:02:32;;;;;;;;;;;;;;;17.33;67.58;101314.56;5013920;28;1705;-39
2020/12/07 06:04:57;;;;;;;;;;;;;;;17.30;68.05;101337.88;5014183;28;1674;-39
2020/12/07 06:07:26;;;;;;;;;;;;;;;17.32;68.68;101327.09;5014218;28;1676;-39
2020/12/07 06:09:52;;;;;;;;;;;;;;;17.29;68.50;101314.81;5013987;28;1673;-39
2020/12/07 06:12:24;;;;;;;;;;;;;;;17.36;68.63;101325.91;5014705;28;1659;-39
2020/12/07 06:14:49;;;;;;;;;;;;;;;17.34;67.70;101327.81;5014115;28;1418;-39
2020/12/07 06:17:24;;;;;;;;;;;;;;;17.33;68.11;101338.63;5014032;28;1439;-39
2020/12/07 06:19:51;;;;;;;;;;;;;;;17.33;68.53;101346.66;5014077;28;1898;-39
2020/12/07 06:22:16;;;;;;;;;;;;;;;17.30;68.42;101345.06;5013584;28;1714;-38
2020/12/07 06:24:44;;;;;;;;;;;;;;;17.29;67.42;101340.69;5014029;28;1561;-39
2020/12/07 06:27:13;;;;;;;;;;;;;;;17.33;68.67;101344.84;5014049;28;1535;-39
2020/12/07 06:29:38;;;;;;;;;;;;;;;17.30;68.22;101343.22;5014118;28;1617;-39
2020/12/07 06:32:03;;;;;;;;;;;;;;;17.30;68.38;101348.56;5014151;28;1499;-39
2020/12/07 06:34:33;;;;;;;;;;;;;;;17.29;68.00;101332.66;5013801;28;1617;-39
2020/12/07 06:36:58;;;;;;;;;;;;;;;17.32;68.65;101345.78;5014081;28;1756;-39
2020/12/07 06:39:23;;;;;;;;;;;;;;;17.32;68.40;101342.28;5013694;28;1902;-39
2020/12/07 06:41:49;;;;;;;;;;;;;;;17.34;68.25;101343.88;5013261;28;1616;-39
2020/12/07 06:44:15;;;;;;;;;;;;;;;17.35;68.76;101347.38;5000733;28;10576;-39
2020/12/07 06:46:48;;;;;;;;;;;;;;;17.27;69.16;101348.81;5012991;28;1695;-39
2020/12/07 06:49:13;;;;;;;;;;;;;;;17.27;69.30;101342.63;5013467;28;1332;-39
2020/12/07 06:51:39;;;;;;;;;;;;;;;17.22;69.11;101326.03;5015793;28;1422;-39
2020/12/07 06:55:02;;;;;;;;;;;;;;;17.23;68.96;101335.75;5014882;28;1580;-39
2020/12/07 06:56:55;;;;;;;;;;;;;;;17.29;70.05;101335.34;5013671;28;1565;-38
2020/12/07 06:59:20;;;;;;;;;;;;;;;17.29;69.80;101330.00;5013607;28;1977;-38
2020/12/07 07:01:51;;;;;;;;;;;;;;;17.29;69.84;101335.34;5013571;28;1615;-39
2020/12/07 07:04:19;;;;;;;;;;;;;;;17.31;70.29;101322.72;5004990;28;1613;-39
2020/12/07 07:06:44;;;;;;;;;;;;;;;17.30;70.39;101323.66;5007063;28;1365;-39
2020/12/07 07:09:10;;;;;;;;;;;;;;;17.25;69.16;101318.66;5013381;28;1749;-39
2020/12/07 07:11:36;;;;;;;;;;;;;;;17.27;70.08;101318.56;5013352;28;1613;-39
2020/12/07 07:14:01;;;;;;;;;;;;;;;17.21;69.32;101300.25;5015109;28;1635;-38
2020/12/07 07:16:27;;;;;;;;;;;;;;;17.21;69.88;101311.84;5015007;28;1720;-39
2020/12/07 07:18:52;;;;;;;;;;;;;;;17.27;69.04;101303.38;5013559;28;1420;-39
2020/12/07 07:21:17;;;;;;;;;;;;;;;17.22;69.01;101302.00;5013462;28;1934;-38
2020/12/07 07:23:44;;;;;;;;;;;;;;;17.18;69.83;101295.16;5013822;28;806;-38
2020/12/07 07:26:13;;;;;;;;;;;;;;;17.17;70.03;101288.97;5013527;28;1605;-38
2020/12/07 07:28:38;;;;;;;;;;;;;;;17.17;70.04;101298.78;5013766;28;857;-38
2020/12/07 07:31:04;;;;;;;;;;;;;;;17.23;70.61;101288.53;5013239;28;1625;-38
2020/12/07 07:33:31;;;;;;;;;;;;;;;17.34;70.00;101278.88;5014780;28;1492;-39
2020/12/07 07:35:56;;;;;;;;;;;;;;;17.59;68.35;101288.63;5016339;28;1436;-39
2020/12/07 07:38:27;;;;;;;;;;;;;;;17.78;68.88;101294.28;5015793;28;1586;-39
2020/12/07 07:40:52;;;;;;;;;;;;;;;17.99;67.74;101299.03;5014664;28;1966;-39
2020/12/07 07:43:17;;;;;;;;;;;;;;;18.14;68.06;101289.81;5016666;28;1421;-39
2020/12/07 07:45:44;;;;;;;;;;;;;;;18.33;66.48;101280.41;5016433;28;1609;-39
2020/12/07 07:48:23;;;;;;;;;;;;;;;18.51;66.81;101287.00;5016698;28;1377;-39
2020/12/07 08:17:56;;;;;;;;;;;;;;;19.54;63.75;101307.47;5049688;28;1412;-39
2020/12/07 08:20:48;;;;;;;;;;;;;;;19.57;63.50;101294.63;5045251;28;1934;-39
2020/12/07 08:23:13;;;;;;;;;;;;;;;19.43;63.72;101303.81;5049702;28;1789;-39
2020/12/07 08:25:58;;;;;;;;;;;;;;;19.34;63.95;101291.16;5037938;28;1628;-39
2020/12/07 08:28:34;;;;;;;;;;;;;;;19.22;64.21;101292.16;5050794;28;1609;-39
2020/12/07 08:30:59;;;;;;;;;;;;;;;19.13;64.78;101288.38;5044612;28;1648;-39
2020/12/07 08:33:24;;;;;;;;;;;;;;;19.08;64.70;101290.59;5047029;28;1444;-39
2020/12/07 08:35:49;;;;;;;;;;;;;;;18.99;64.71;101292.16;5032111;28;1597;-39
2020/12/07 08:38:28;;;;;;;;;;;;;;;19.00;64.79;101288.53;5044494;28;1595;-39
2020/12/07 08:41:01;;;;;;;;;;;;;;;18.98;64.28;101284.25;5004775;28;1969;-39
2020/12/07 08:43:26;;;;;;;;;;;;;;;18.92;64.34;101274.88;5010593;28;1631;-38
2020/12/07 08:45:51;;;;;;;;;;;;;;;18.80;64.68;101271.34;5019443;28;1591;-39
2020/12/07 08:48:36;;;;;;;;;;;;;;;18.79;64.85;101268.75;5015857;28;1877;-39
2020/12/07 08:51:18;;;;;;;;;;;;;;;18.71;64.81;101260.47;5017325;28;1699;-39
2020/12/07 08:53:43;;;;;;;;;;;;;;;18.62;65.59;101241.50;5020631;28;1416;-39
2020/12/07 08:56:09;;;;;;;;;;;;;;;18.63;64.96;101231.63;5011047;28;1560;-39
2020/12/07 08:58:34;;;;;;;;;;;;;;;18.58;65.27;101239.16;5010408;28;1662;-39
2020/12/07 09:01:13;;;;;;;;;;;;;;;18.56;65.63;101246.47;5013064;28;1878;-39
2020/12/07 09:03:45;;;;;;;;;;;;;;;18.52;65.05;101245.00;5013000;28;1794;-39
2020/12/07 09:06:12;;;;;;;;;;;;;;;18.46;65.31;101235.63;5010387;28;1449;-39
2020/12/07 09:08:40;;;;;;;;;;;;;;;18.42;65.27;101228.78;5011882;28;2804;-39
2020/12/07 09:11:11;;;;;;;;;;;;;;;18.35;65.38;101227.59;5005002;28;1602;-39
2020/12/07 09:13:36;;;;;;;;;;;;;;;18.39;65.33;101231.72;5007449;28;2544;-39
2020/12/07 09:16:02;;;;;;;;;;;;;;;18.47;65.81;101218.59;5040211;28;2568;-39
2020/12/07 09:18:27;;;;;;;;;;;;;;;18.51;66.08;101220.06;5004610;28;1282;-39
2020/12/07 09:20:53;;;;;;;;;;;;;;;18.55;65.73;101224.19;5010345;28;1968;-39
2020/12/07 09:23:19;;;;;;;;;;;;;;;18.52;66.36;101213.69;5010050;28;1266;-40
2020/12/07 09:25:44;;;;;;;;;;;;;;;18.57;65.95;101206.16;5010076;28;1506;-39
2020/12/07 09:28:10;;;;;;;;;;;;;;;18.56;65.90;101203.59;5010885;28;1333;-39
2020/12/07 09:30:35;;;;;;;;;;;;;;;18.49;65.86;101182.66;5009222;28;1707;-39
2020/12/07 09:33:00;;;;;;;;;;;;;;;18.56;64.61;101180.38;5009900;28;1503;-40
2020/12/07 09:35:25;;;;;;;;;;;;;;;18.64;65.80;101183.28;5010072;28;1818;-39
2020/12/07 09:37:51;;;;;;;;;;;;;;;18.77;65.41;101193.00;5011058;28;1955;-39
2020/12/07 09:40:16;;;;;;;;;;;;;;;18.88;65.83;101185.00;5009696;28;1910;-39
2020/12/07 09:42:41;;;;;;;;;;;;;;;18.98;64.77;101199.34;5010785;28;1590;-39
2020/12/07 09:45:07;;;;;;;;;;;;;;;19.22;63.97;101185.75;5011053;28;1585;-39
2020/12/07 09:47:32;;;;;;;;;;;;;;;19.43;63.64;101185.78;5012712;28;1459;-39
2020/12/07 09:49:58;;;;;;;;;;;;;;;19.43;64.00;101183.09;5010858;28;1598;-39
2020/12/07 09:52:23;;;;;;;;;;;;;;;19.42;64.24;101177.91;5009188;28;1408;-39
2020/12/07 09:54:48;;;;;;;;;;;;;;;19.45;64.78;101170.41;5010139;28;1100;-39
2020/12/07 09:57:14;;;;;;;;;;;;;;;19.43;64.59;101167.00;5009224;28;1432;-39
2020/12/07 09:59:40;;;;;;;;;;;;;;;19.54;64.49;101151.88;5009905;28;1882;-39
2020/12/07 10:02:05;;;;;;;;;;;;;;;19.56;65.08;101153.44;5010402;28;1472;-39
2020/12/07 10:04:30;;;;;;;;;;;;;;;19.65;64.97;101157.16;5006274;28;2728;-40
2020/12/07 10:06:56;;;;;;;;;;;;;;;19.68;64.79;101143.50;5015562;28;1655;-39
2020/12/07 10:09:22;;;;;;;;;;;;;;;19.79;64.55;101129.19;5010451;28;1888;-40
2020/12/07 10:11:47;;;;;;;;;;;;;;;19.64;65.13;101142.06;5011255;28;1751;-39
2020/12/07 10:14:12;;;;;;;;;;;;;;;19.78;65.14;101120.28;5010363;28;1480;-40
2020/12/07 10:16:40;;;;;;;;;;;;;;;19.80;65.23;101136.25;5008193;28;1801;-41
2020/12/07 10:19:05;;;;;;;;;;;;;;;19.78;65.31;101133.72;5010698;28;1832;-40
2020/12/07 10:21:30;;;;;;;;;;;;;;;19.74;65.20;101131.44;5012409;28;1898;-39
2020/12/07 10:23:56;;;;;;;;;;;;;;;19.81;65.16;101133.44;5010492;28;1885;-40
2020/12/07 10:26:22;;;;;;;;;;;;;;;19.72;65.80;101133.41;5010851;28;1754;-40
2020/12/07 10:28:48;;;;;;;;;;;;;;;19.57;65.91;101130.13;5010654;28;1761;-40
2020/12/07 10:31:13;;;;;;;;;;;;;;;19.46;65.77;101123.00;5009703;28;1755;-40
2020/12/07 10:33:38;;;;;;;;;;;;;;;19.39;65.89;101133.38;5011044;28;1994;-40
2020/12/07 10:36:03;;;;;;;;;;;;;;;19.33;66.21;101127.69;5008059;28;1763;-39
2020/12/07 10:38:28;;;;;;;;;;;;;;;19.23;66.64;101114.22;5009517;28;1813;-40
2020/12/07 10:40:54;;;;;;;;;;;;;;;19.23;65.78;101106.16;5009085;28;11066;-40
2020/12/07 10:43:19;;;;;;;;;;;;;;;19.13;66.49;101090.00;5011405;28;1437;-39
2020/12/07 10:45:44;;;;;;;;;;;;;;;19.12;66.90;101082.94;5009079;28;1599;-41
2020/12/07 10:48:09;;;;;;;;;;;;;;;19.12;66.33;101076.72;5023714;28;1776;-40
2020/12/07 10:50:35;;;;;;;;;;;;;;;19.03;66.51;101063.13;5010296;28;1768;-40
2020/12/07 10:53:00;;;;;;;;;;;;;;;19.05;66.43;101055.78;5009633;28;1559;-41
2020/12/07 10:55:25;;;;;;;;;;;;;;;19.08;66.37;101052.03;5009659;28;1239;-39
2020/12/07 10:57:51;;;;;;;;;;;;;;;19.00;66.80;101047.31;5010419;28;1719;-40
2020/12/07 11:00:16;;;;;;;;;;;;;;;18.91;66.74;101041.88;4999382;28;1898;-39
2020/12/07 11:02:41;;;;;;;;;;;;;;;18.89;67.11;101039.31;5010818;28;1610;-40
2020/12/07 11:05:07;;;;;;;;;;;;;;;18.89;66.76;101055.38;5011564;28;1489;-40
2020/12/07 11:07:33;;;;;;;;;;;;;;;18.87;67.03;101049.31;4975655;28;10942;-40
2020/12/07 11:09:58;;;;;;;;;;;;;;;18.80;67.08;101045.41;5008971;28;1704;-41
2020/12/07 11:12:24;;;;;;;;;;;;;;;18.74;66.81;101064.66;4990547;28;1681;-40
2020/12/07 11:14:50;;;;;;;;;;;;;;;18.77;66.69;101059.06;4988351;28;1934;-40
2020/12/07 11:17:15;;;;;;;;;;;;;;;18.82;66.99;101056.84;4991419;28;1219;-41
2020/12/07 11:19:44;;;;;;;;;;;;;;;18.92;67.35;101062.31;4991552;28;1958;-41
2020/12/07 11:22:12;;;;;;;;;;;;;;;18.93;67.11;101045.25;4990868;28;1780;-40
2020/12/07 11:24:38;;;;;;;;;;;;;;;19.21;66.01;101051.81;4984246;28;1769;-40
2020/12/07 11:27:03;;;;;;;;;;;;;;;19.17;66.53;101048.56;4988412;28;1710;-41
2020/12/07 11:29:28;;;;;;;;;;;;;;;19.11;67.29;101056.28;4990214;28;1942;-41
2020/12/07 11:31:54;;;;;;;;;;;;;;;19.10;67.18;101051.88;4991626;28;1773;-40
2020/12/07 11:34:20;;;;;;;;;;;;;;;19.20;66.24;101045.63;4987799;28;1724;-41
2020/12/07 11:36:54;;;;;;;;;;;;;;;19.15;67.28;101052.34;4987282;28;2275;-41
2020/12/07 11:41:57;;;;;;;;;;;;;;;19.03;66.38;101051.56;4988759;28;1656;-42
2020/12/07 11:44:23;;;;;;;;;;;;;;;18.94;67.38;101041.59;4989920;28;1898;-41
2020/12/07 11:46:57;;;;;;;;;;;;;;;18.91;66.34;101037.34;4994865;28;1578;-41
2020/12/07 11:49:22;;;;;;;;;;;;;;;18.86;65.53;101040.41;4990780;28;1580;-41
2020/12/07 11:51:48;;;;;;;;;;;;;;;18.82;65.47;101027.38;4990630;28;1553;-41
2020/12/07 11:54:13;;;;;;;;;;;;;;;18.81;65.42;101047.13;4990733;28;1607;-40
2020/12/07 11:56:39;;;;;;;;;;;;;;;18.73;65.58;101033.50;4990716;28;1693;-41
2020/12/07 11:59:04;;;;;;;;;;;;;;;18.74;65.49;101036.06;4990206;28;1680;-41
2020/12/07 12:01:31;;;;;;;;;;;;;;;18.75;65.47;101036.91;4990834;28;1957;-41
2020/12/07 12:03:57;;;;;;;;;;;;;;;18.73;65.17;101028.13;4988909;28;1848;-40
2020/12/07 12:06:23;;;;;;;;;;;;;;;18.70;65.95;101023.88;4992935;28;1679;-41
2020/12/07 12:08:48;;;;;;;;;;;;;;;18.69;65.24;101041.78;4989899;28;2388;-42
2020/12/07 12:11:13;;;;;;;;;;;;;;;18.66;65.50;101034.00;4986849;28;1915;-41
2020/12/07 12:13:39;;;;;;;;;;;;;;;18.61;65.49;101036.19;4989259;28;1637;-41
2020/12/07 12:16:04;;;;;;;;;;;;;;;18.62;65.26;101037.03;4990674;28;1282;-41
2020/12/07 12:18:30;;;;;;;;;;;;;;;18.63;65.30;101055.66;4990004;28;1716;-41
2020/12/07 12:20:55;;;;;;;;;;;;;;;18.62;65.79;101048.63;4982562;28;1894;-40
2020/12/07 12:23:20;;;;;;;;;;;;;;;18.57;63.59;101037.44;4985765;28;1743;-41
2020/12/07 12:25:45;;;;;;;;;;;;;;;18.60;66.03;101039.88;4986958;28;1700;-41
2020/12/07 12:28:11;;;;;;;;;;;;;;;18.59;66.41;101048.03;4990197;28;1369;-40
2020/12/07 12:30:36;;;;;;;;;;;;;;;18.60;66.78;101041.69;4984642;28;1910;-41
2020/12/07 12:33:01;;;;;;;;;;;;;;;18.57;66.44;101040.13;4990024;28;1578;-41
2020/12/07 12:35:27;;;;;;;;;;;;;;;18.57;66.81;101032.06;4985964;28;1706;-41
2020/12/07 12:37:52;;;;;;;;;;;;;;;18.54;66.42;101029.63;4987387;28;1453;-41
2020/12/07 12:40:18;;;;;;;;;;;;;;;18.68;66.84;101036.53;4986518;28;1974;-41
2020/12/07 12:42:43;;;;;;;;;;;;;;;18.64;66.78;101016.34;4989521;28;1751;-41
2020/12/07 12:45:08;;;;;;;;;;;;;;;18.66;66.92;101028.66;4987185;28;1703;-41
2020/12/07 12:47:33;;;;;;;;;;;;;;;18.65;66.52;101040.31;4989632;28;1485;-41
2020/12/07 12:49:59;;;;;;;;;;;;;;;18.67;66.74;101034.84;4990052;28;1885;-41
2020/12/07 12:52:24;;;;;;;;;;;;;;;18.75;67.21;101037.75;4991104;28;2354;-40
2020/12/07 12:54:49;;;;;;;;;;;;;;;18.79;67.57;101025.81;4988217;28;1587;-41
2020/12/07 12:57:14;;;;;;;;;;;;;;;18.73;68.64;101030.81;4989679;28;1719;-41
2020/12/07 12:59:39;;;;;;;;;;;;;;;18.72;68.69;101026.41;4987013;28;2385;-40
2020/12/07 13:02:05;;;;;;;;;;;;;;;18.76;69.00;101031.41;4988937;28;1593;-40
2020/12/07 13:04:30;;;;;;;;;;;;;;;18.74;68.95;101019.09;4989762;28;1747;-40
2020/12/07 13:06:56;;;;;;;;;;;;;;;18.63;68.72;101015.50;4989260;28;1579;-41
2020/12/07 13:09:21;;;;;;;;;;;;;;;18.61;69.09;101020.13;4985886;28;1636;-41
2020/12/07 13:11:48;;;;;;;;;;;;;;;18.61;68.97;101020.13;4983716;28;1589;-41
2020/12/07 13:14:13;;;;;;;;;;;;;;;18.57;69.21;101001.78;4990765;28;1740;-40